createdAt,value
2019-03-25T00:00:45.332Z,2.73
2019-03-25T00:03:13.896Z,2.63
2019-03-25T00:05:42.400Z,2.97
2019-03-25T00:08:10.855Z,2.80
2019-03-25T00:10:39.411Z,2.40
2019-03-25T00:13:07.900Z,2.80
2019-03-25T00:15:36.594Z,3.20
2019-03-25T00:18:05.166Z,2.60
2019-03-25T00:20:33.627Z,2.30
2019-03-25T00:23:02.087Z,2.83
2019-03-25T00:25:30.574Z,2.60
2019-03-25T00:27:59.139Z,2.87
2019-03-25T00:30:27.698Z,2.90
2019-03-25T00:32:56.154Z,2.60
2019-03-25T00:35:24.751Z,2.77
2019-03-25T00:37:53.240Z,2.63
2019-03-25T00:40:21.740Z,2.83
2019-03-25T00:42:50.250Z,3.03
2019-03-25T00:45:18.734Z,2.67
2019-03-25T00:47:47.194Z,3.27
2019-03-25T00:50:15.674Z,2.87
2019-03-25T00:52:44.139Z,3.07
2019-03-25T00:55:12.762Z,3.57
2019-03-25T00:57:41.316Z,3.40
2019-03-25T01:00:10.235Z,3.10
2019-03-25T01:02:38.878Z,3.43
2019-03-25T01:05:07.974Z,3.30
2019-03-25T01:07:36.435Z,2.80
2019-03-25T01:10:06.859Z,3.50
2019-03-25T01:12:35.490Z,3.37
2019-03-25T01:15:05.863Z,3.23
2019-03-25T01:17:34.363Z,3.30
2019-03-25T01:20:03.635Z,3.27
2019-03-25T01:22:32.129Z,3.63
2019-03-25T01:25:02.113Z,3.50
2019-03-25T01:27:30.812Z,3.37
2019-03-25T01:29:59.352Z,3.30
2019-03-25T01:32:28.047Z,3.57
2019-03-25T01:34:56.540Z,3.50
2019-03-25T01:37:25.002Z,3.13
2019-03-25T01:39:53.485Z,3.40
2019-03-25T01:42:21.951Z,3.03
2019-03-25T01:44:50.430Z,3.30
2019-03-25T01:47:18.995Z,4.00
2019-03-25T01:49:47.543Z,3.50
2019-03-25T01:52:16.271Z,3.70
2019-03-25T01:54:44.958Z,3.67
2019-03-25T01:57:13.637Z,3.80
2019-03-25T01:59:42.424Z,3.27
2019-03-25T02:02:12.553Z,3.50
2019-03-25T02:04:41.439Z,3.40
2019-03-25T02:07:12.190Z,3.30
2019-03-25T02:09:40.647Z,3.47
2019-03-25T02:12:09.441Z,3.27
2019-03-25T02:14:38.094Z,3.40
2019-03-25T02:17:06.810Z,3.47
2019-03-25T02:19:35.701Z,3.20
2019-03-25T02:22:04.796Z,3.60
2019-03-25T02:24:33.583Z,3.37
2019-03-25T02:27:02.221Z,3.30
2019-03-25T02:29:30.864Z,3.37
2019-03-25T02:31:59.634Z,3.40
2019-03-25T02:34:28.529Z,3.63
2019-03-25T02:36:57.210Z,3.90
2019-03-25T02:39:26.104Z,3.80
2019-03-25T02:41:54.785Z,3.40
2019-03-25T02:44:23.445Z,3.80
2019-03-25T02:46:52.157Z,3.80
2019-03-25T02:49:20.868Z,3.50
2019-03-25T02:51:50.509Z,4.17
2019-03-25T02:54:19.242Z,4.50
2019-03-25T02:56:48.024Z,4.20
2019-03-25T02:59:16.717Z,3.93
2019-03-25T03:01:45.707Z,3.93
2019-03-25T03:04:14.411Z,4.03
2019-03-25T03:06:43.090Z,3.67
2019-03-25T03:09:11.782Z,4.03
2019-03-25T03:11:40.503Z,4.20
2019-03-25T03:14:09.242Z,3.60
2019-03-25T03:16:37.902Z,4.27
2019-03-25T03:19:06.586Z,4.30
2019-03-25T03:21:35.197Z,4.47
2019-03-25T03:24:04.035Z,4.00
2019-03-25T03:26:32.684Z,4.03
2019-03-25T03:29:01.442Z,3.83
2019-03-25T03:31:30.149Z,4.07
2019-03-25T03:33:58.825Z,4.23
2019-03-25T03:36:27.617Z,3.97
2019-03-25T03:38:56.324Z,4.50
2019-03-25T03:41:24.973Z,4.20
2019-03-25T03:43:53.759Z,3.90
2019-03-25T03:46:22.557Z,4.07
2019-03-25T03:48:51.204Z,3.73
2019-03-25T03:51:20.131Z,3.87
2019-03-25T03:53:48.915Z,4.30
2019-03-25T03:56:17.806Z,4.10
2019-03-25T03:58:46.505Z,3.97
2019-03-25T04:01:15.061Z,4.60
2019-03-25T04:03:43.596Z,3.80
2019-03-25T04:06:12.187Z,4.23
2019-03-25T04:08:40.755Z,3.33
2019-03-25T04:11:09.258Z,3.77
2019-03-25T04:13:37.824Z,3.90
2019-03-25T04:16:06.496Z,3.70
2019-03-25T04:18:35.093Z,4.17
2019-03-25T04:21:03.684Z,3.77
2019-03-25T04:23:32.235Z,4.33
2019-03-25T04:26:00.729Z,4.77
2019-03-25T04:28:29.267Z,5.20
2019-03-25T04:30:57.838Z,4.77
2019-03-25T04:33:26.399Z,3.90
2019-03-25T04:35:54.936Z,4.67
2019-03-25T04:38:23.498Z,3.93
2019-03-25T04:40:51.952Z,4.57
2019-03-25T04:43:20.447Z,4.57
2019-03-25T04:45:49.770Z,4.20
2019-03-25T04:48:18.370Z,4.20
2019-03-25T04:50:46.926Z,4.37
2019-03-25T04:53:15.393Z,4.63
2019-03-25T04:55:43.875Z,4.67
2019-03-25T04:58:12.334Z,4.03
2019-03-25T05:00:40.939Z,4.47
2019-03-25T05:03:09.503Z,4.03
2019-03-25T05:05:37.963Z,4.33
2019-03-25T05:08:06.495Z,3.90
2019-03-25T05:10:35.050Z,4.10
2019-03-25T05:13:03.584Z,4.20
2019-03-25T05:15:32.128Z,4.43
2019-03-25T05:18:00.683Z,4.17
2019-03-25T05:20:29.172Z,4.87
2019-03-25T05:22:57.731Z,4.27
2019-03-25T05:25:26.186Z,4.40
2019-03-25T05:27:54.671Z,4.63
2019-03-25T05:30:23.138Z,4.60
2019-03-25T05:32:51.735Z,5.47
2019-03-25T05:35:20.266Z,5.50
2019-03-25T05:37:48.735Z,5.43
2019-03-25T05:40:17.250Z,4.87
2019-03-25T05:42:45.835Z,5.27
2019-03-25T05:45:14.647Z,5.63
2019-03-25T05:47:43.166Z,6.57
2019-03-25T05:50:11.786Z,6.83
2019-03-25T05:52:40.246Z,6.80
2019-03-25T05:55:08.927Z,6.87
2019-03-25T05:57:37.416Z,6.63
2019-03-25T06:00:06.511Z,5.93
2019-03-25T06:02:34.962Z,5.33
2019-03-25T06:05:03.819Z,5.20
2019-03-25T06:07:32.302Z,5.17
2019-03-25T06:10:00.802Z,4.87
2019-03-25T06:12:29.263Z,4.67
2019-03-25T06:14:57.746Z,4.57
2019-03-25T06:17:26.210Z,4.50
2019-03-25T06:19:54.675Z,5.23
2019-03-25T06:22:23.231Z,4.37
2019-03-25T06:24:51.730Z,4.77
2019-03-25T06:27:20.290Z,4.83
2019-03-25T06:29:48.758Z,5.03
2019-03-25T06:32:17.248Z,4.63
2019-03-25T06:34:45.827Z,4.70
2019-03-25T06:37:14.458Z,4.60
2019-03-25T06:39:43.047Z,4.37
2019-03-25T06:42:11.586Z,5.13
2019-03-25T06:44:40.211Z,4.47
2019-03-25T06:47:08.759Z,4.50
2019-03-25T06:49:37.247Z,4.60
2019-03-25T06:52:06.011Z,4.47
2019-03-25T06:54:34.499Z,4.57
2019-03-25T06:57:02.954Z,4.30
2019-03-25T06:59:31.485Z,4.53
2019-03-25T07:01:59.982Z,4.83
2019-03-25T07:04:28.455Z,4.60
2019-03-25T07:06:56.977Z,4.80
2019-03-25T07:09:25.602Z,5.27
2019-03-25T07:11:54.092Z,5.07
2019-03-25T07:14:22.628Z,4.97
2019-03-25T07:16:51.183Z,5.40
2019-03-25T07:19:19.807Z,5.57
2019-03-25T07:21:48.350Z,5.83
2019-03-25T07:24:16.807Z,6.37
2019-03-25T07:26:45.278Z,5.53
2019-03-25T07:29:13.758Z,5.63
2019-03-25T07:31:42.394Z,5.37
2019-03-25T07:34:10.956Z,6.17
2019-03-25T07:36:39.419Z,6.30
2019-03-25T07:39:07.971Z,6.77
2019-03-25T07:41:36.434Z,6.70
2019-03-25T07:44:05.042Z,5.83
2019-03-25T07:46:33.530Z,6.07
2019-03-25T07:49:02.015Z,6.03
2019-03-25T07:51:30.550Z,5.80
2019-03-25T07:53:59.086Z,5.27
2019-03-25T07:56:27.735Z,5.30
2019-03-25T07:58:56.287Z,4.90
2019-03-25T08:01:24.750Z,4.83
2019-03-25T08:03:53.295Z,4.87
2019-03-25T08:06:21.794Z,4.80
2019-03-25T08:08:50.287Z,5.10
2019-03-25T08:11:18.882Z,4.60
2019-03-25T08:13:47.442Z,4.57
2019-03-25T08:16:15.980Z,4.13
2019-03-25T08:18:44.503Z,4.03
2019-03-25T08:21:13.015Z,3.80
2019-03-25T08:23:41.500Z,4.30
2019-03-25T08:26:09.962Z,4.20
2019-03-25T08:28:38.518Z,3.57
2019-03-25T08:31:07.075Z,3.87
2019-03-25T08:33:35.604Z,4.17
2019-03-25T08:36:04.442Z,4.87
2019-03-25T08:38:33.040Z,4.70
2019-03-25T08:41:01.529Z,4.70
2019-03-25T08:43:29.996Z,4.03
2019-03-25T08:45:58.562Z,3.90
2019-03-25T08:48:27.103Z,3.63
2019-03-25T08:50:55.660Z,3.40
2019-03-25T08:53:24.195Z,3.60
2019-03-25T08:55:52.664Z,3.70
2019-03-25T08:58:21.223Z,3.60
2019-03-25T09:00:49.755Z,3.60
2019-03-25T09:03:18.243Z,3.83
2019-03-25T09:05:46.712Z,3.80
2019-03-25T09:08:15.253Z,3.73
2019-03-25T09:10:43.741Z,3.70
2019-03-25T09:13:12.294Z,4.00
2019-03-25T09:15:40.759Z,3.53
2019-03-25T09:18:09.461Z,3.63
2019-03-25T09:20:37.994Z,3.70
2019-03-25T09:23:06.631Z,3.00
2019-03-25T09:25:35.283Z,3.20
2019-03-25T09:28:03.915Z,2.70
2019-03-25T09:30:51.964Z,3.10
2019-03-25T09:33:20.762Z,2.57
2019-03-25T09:35:49.588Z,2.47
2019-03-25T09:38:18.314Z,2.57
2019-03-25T09:40:46.971Z,2.10
2019-03-25T09:43:15.555Z,2.10
2019-03-25T09:45:44.087Z,2.60
2019-03-25T09:48:12.575Z,3.00
2019-03-25T09:50:41.030Z,3.00
2019-03-25T09:53:09.547Z,2.83
2019-03-25T09:55:38.038Z,2.60
2019-03-25T09:58:06.606Z,2.47
2019-03-25T10:00:35.138Z,2.70
2019-03-25T10:03:03.818Z,2.57
2019-03-25T10:05:32.693Z,2.33
2019-03-25T10:08:01.269Z,2.50
2019-03-25T10:10:29.837Z,2.17
2019-03-25T10:12:58.502Z,2.07
2019-03-25T10:15:26.993Z,2.03
2019-03-25T10:17:55.555Z,2.23
2019-03-25T10:20:24.088Z,1.70
2019-03-25T10:22:52.631Z,1.80
2019-03-25T10:25:21.198Z,1.93
2019-03-25T10:27:49.788Z,2.23
2019-03-25T10:30:18.715Z,2.03
2019-03-25T10:32:47.207Z,2.03
2019-03-25T10:35:15.913Z,2.10
2019-03-25T10:37:45.358Z,1.93
2019-03-25T10:40:14.491Z,1.87
2019-03-25T10:42:43.058Z,1.70
2019-03-25T10:45:13.954Z,1.70
2019-03-25T10:47:42.617Z,2.07
2019-03-25T10:50:11.909Z,1.70
2019-03-25T10:52:40.401Z,2.40
2019-03-25T10:55:09.485Z,1.90
2019-03-25T10:57:38.026Z,2.50
2019-03-25T11:00:08.531Z,2.30
2019-03-25T11:02:37.114Z,2.00
2019-03-25T11:05:07.544Z,2.27
2019-03-25T11:07:36.109Z,2.03
2019-03-25T11:10:07.007Z,2.30
2019-03-25T11:12:35.474Z,1.83
2019-03-25T11:15:06.538Z,1.93
2019-03-25T11:17:35.002Z,1.40
2019-03-25T11:20:05.503Z,2.07
2019-03-25T11:22:34.219Z,1.70
2019-03-25T11:25:02.806Z,1.70
2019-03-25T11:27:31.297Z,1.80
2019-03-25T11:29:59.944Z,1.87
2019-03-25T11:32:28.567Z,1.87
2019-03-25T11:34:57.058Z,1.60
2019-03-25T11:37:25.595Z,1.77
2019-03-25T11:39:54.107Z,1.67
2019-03-25T11:42:22.646Z,1.77
2019-03-25T11:44:51.246Z,1.77
2019-03-25T11:47:19.722Z,1.60
2019-03-25T11:49:48.227Z,2.17
2019-03-25T11:52:16.751Z,1.90
2019-03-25T11:54:45.218Z,1.77
2019-03-25T11:57:13.703Z,1.90
2019-03-25T11:59:42.171Z,2.10
2019-03-25T12:02:17.569Z,2.30
2019-03-25T12:04:40.861Z,2.13
2019-03-25T12:07:09.473Z,1.50
2019-03-25T12:09:37.975Z,1.80
2019-03-25T12:12:06.572Z,2.20
2019-03-25T12:14:35.034Z,1.60
2019-03-25T12:17:03.606Z,1.10
2019-03-25T12:19:32.070Z,2.60
2019-03-25T12:22:00.550Z,2.20
2019-03-25T12:24:29.108Z,1.83
2019-03-25T12:26:57.574Z,1.90
2019-03-25T12:29:30.477Z,1.90
2019-03-25T12:31:56.419Z,1.50
2019-03-25T12:34:25.013Z,1.47
2019-03-25T12:36:53.714Z,1.50
2019-03-25T12:39:22.341Z,1.77
2019-03-25T12:41:50.991Z,1.60
2019-03-25T12:44:19.610Z,1.60
2019-03-25T12:46:48.170Z,1.90
2019-03-25T12:49:16.626Z,1.90
2019-03-25T12:51:45.187Z,1.60
2019-03-25T12:54:13.767Z,1.67
2019-03-25T12:56:42.227Z,1.60
2019-03-25T12:59:10.971Z,1.73
2019-03-25T13:01:39.526Z,1.50
2019-03-25T13:04:08.019Z,2.20
2019-03-25T13:06:36.554Z,1.73
2019-03-25T13:09:06.974Z,2.17
2019-03-25T13:11:35.498Z,1.80
2019-03-25T13:14:04.216Z,1.90
2019-03-25T13:16:32.782Z,1.97
2019-03-25T13:19:01.251Z,1.60
2019-03-25T13:21:29.714Z,1.80
2019-03-25T13:23:58.355Z,1.50
2019-03-25T13:26:26.815Z,1.90
2019-03-25T13:29:02.100Z,1.90
2019-03-25T13:31:25.502Z,1.50
2019-03-25T13:33:53.967Z,1.50
2019-03-25T13:36:22.464Z,1.50
2019-03-25T13:38:51.026Z,1.60
2019-03-25T13:41:19.494Z,1.27
2019-03-25T13:43:48.126Z,1.50
2019-03-25T13:46:16.995Z,1.57
2019-03-25T13:48:45.462Z,1.30
2019-03-25T13:51:13.948Z,1.20
2019-03-25T13:53:42.414Z,1.20
2019-03-25T13:56:10.899Z,1.27
2019-03-25T13:58:39.362Z,1.10
2019-03-25T14:01:07.920Z,1.80
2019-03-25T14:03:36.395Z,1.20
2019-03-25T14:06:05.479Z,1.60
2019-03-25T14:08:34.015Z,1.13
2019-03-25T14:11:02.506Z,1.30
2019-03-25T14:13:31.075Z,1.23
2019-03-25T14:15:59.702Z,1.47
2019-03-25T14:18:28.195Z,1.20
2019-03-25T14:20:56.769Z,1.30
2019-03-25T14:23:25.262Z,1.20
2019-03-25T14:25:53.895Z,1.13
2019-03-25T14:28:22.471Z,1.13
2019-03-25T14:30:51.100Z,1.40
2019-03-25T14:33:19.666Z,2.53
2019-03-25T14:35:48.455Z,1.50
2019-03-25T14:38:17.095Z,1.23
2019-03-25T14:40:45.812Z,1.40
2019-03-25T14:43:14.341Z,1.63
2019-03-25T14:45:42.994Z,1.57
2019-03-25T14:48:11.455Z,1.60
2019-03-25T14:50:39.982Z,1.47
2019-03-25T14:53:08.682Z,1.73
2019-03-25T14:55:37.154Z,1.80
2019-03-25T14:58:05.783Z,2.30
2019-03-25T15:00:34.316Z,2.20
2019-03-25T15:03:02.810Z,1.70
2019-03-25T15:05:31.344Z,1.90
2019-03-25T15:07:59.902Z,2.00
2019-03-25T15:10:28.510Z,1.67
2019-03-25T15:12:57.310Z,1.90
2019-03-25T15:15:25.912Z,2.10
2019-03-25T15:17:54.441Z,2.20
2019-03-25T15:20:23.027Z,1.83
2019-03-25T15:22:51.623Z,1.40
2019-03-25T15:25:20.114Z,1.27
2019-03-25T15:27:48.578Z,1.17
2019-03-25T15:30:17.402Z,1.03
2019-03-25T15:32:45.905Z,1.43
2019-03-25T15:35:14.807Z,1.00
2019-03-25T15:37:43.275Z,1.30
2019-03-25T15:40:13.234Z,1.37
2019-03-25T15:42:42.175Z,1.50
2019-03-25T15:45:10.899Z,1.20
2019-03-25T15:47:39.996Z,1.20
2019-03-25T15:50:10.377Z,1.50
2019-03-25T15:52:39.389Z,1.70
2019-03-25T15:55:08.691Z,1.70
2019-03-25T15:57:39.583Z,2.57
2019-03-25T16:00:16.494Z,1.93
2019-03-25T16:02:45.319Z,1.80
2019-03-25T16:05:14.624Z,2.83
2019-03-25T16:07:43.157Z,2.00
2019-03-25T16:10:13.584Z,2.37
2019-03-25T16:12:42.134Z,2.30
2019-03-25T16:15:12.340Z,2.27
2019-03-25T16:17:43.159Z,2.37
2019-03-25T16:20:12.194Z,2.50
2019-03-25T16:22:40.746Z,2.43
2019-03-25T16:25:11.011Z,2.90
2019-03-25T16:27:39.468Z,2.50
2019-03-25T16:30:08.678Z,2.80
2019-03-25T16:32:37.254Z,2.70
2019-03-25T16:35:06.699Z,2.40
2019-03-25T16:37:35.230Z,2.47
2019-03-25T16:40:04.883Z,2.60
2019-03-25T16:42:33.347Z,2.90
2019-03-25T16:45:01.882Z,2.90
2019-03-25T16:47:30.454Z,3.13
2019-03-25T16:49:59.015Z,2.97
2019-03-25T16:52:27.559Z,3.00
2019-03-25T16:54:56.143Z,2.60
2019-03-25T16:57:24.666Z,2.97
2019-03-25T16:59:53.221Z,2.37
2019-03-25T17:02:21.951Z,2.40
2019-03-25T17:04:50.430Z,2.50
2019-03-25T17:07:19.073Z,2.57
2019-03-25T17:09:47.598Z,2.40
2019-03-25T17:12:16.091Z,2.23
2019-03-25T17:14:44.667Z,2.60
2019-03-25T17:17:13.294Z,2.07
2019-03-25T17:19:41.758Z,2.20
2019-03-25T17:22:10.250Z,1.70
2019-03-25T17:24:38.707Z,1.60
2019-03-25T17:27:07.210Z,1.63
2019-03-25T17:29:35.750Z,2.00
2019-03-25T17:32:04.278Z,2.10
2019-03-25T17:34:32.845Z,1.80
2019-03-25T17:37:01.342Z,2.50
2019-03-25T17:39:29.803Z,2.00
2019-03-25T17:41:58.330Z,1.60
2019-03-25T17:44:26.928Z,1.80
2019-03-25T17:46:55.447Z,1.90
2019-03-25T17:49:24.002Z,1.70
2019-03-25T17:51:52.502Z,2.07
2019-03-25T17:54:20.973Z,2.00
2019-03-25T17:56:49.542Z,2.10
2019-03-25T17:59:18.123Z,1.90
2019-03-25T18:01:46.651Z,1.90
2019-03-25T18:04:15.138Z,1.60
2019-03-25T18:06:43.766Z,1.70
2019-03-25T18:09:12.483Z,2.00
2019-03-25T18:11:40.942Z,1.60
2019-03-25T18:14:09.443Z,1.70
2019-03-25T18:16:37.975Z,1.40
2019-03-25T18:19:06.958Z,1.37
2019-03-25T18:21:35.497Z,1.50
2019-03-25T18:24:04.191Z,2.10
2019-03-25T18:26:32.651Z,2.50
2019-03-25T18:29:01.119Z,2.20
2019-03-25T18:31:29.691Z,2.90
2019-03-25T18:33:58.423Z,1.97
2019-03-25T18:36:26.982Z,2.03
2019-03-25T18:38:55.525Z,3.67
2019-03-25T18:41:24.087Z,2.07
2019-03-25T18:43:52.842Z,2.00
2019-03-25T18:46:21.689Z,1.93
2019-03-25T18:48:50.372Z,3.00
2019-03-25T18:51:18.987Z,3.00
2019-03-25T18:53:47.448Z,2.43
2019-03-25T18:56:16.142Z,2.60
2019-03-25T18:58:45.121Z,2.80
2019-03-25T19:01:13.726Z,2.57
2019-03-25T19:03:42.415Z,2.00
2019-03-25T19:06:10.873Z,2.07
2019-03-25T19:08:39.491Z,2.70
2019-03-25T19:11:08.062Z,2.47
2019-03-25T19:13:36.562Z,3.13
2019-03-25T19:16:05.108Z,3.33
2019-03-25T19:18:33.622Z,2.70
2019-03-25T19:21:02.214Z,3.20
2019-03-25T19:23:30.814Z,3.10
2019-03-25T19:25:59.295Z,3.00
2019-03-25T19:28:27.803Z,3.30
2019-03-25T19:30:56.374Z,5.00
2019-03-25T19:33:24.981Z,3.20
2019-03-25T19:35:53.531Z,3.20
2019-03-25T19:38:22.120Z,4.87
2019-03-25T19:40:51.539Z,3.13
2019-03-25T19:43:20.070Z,2.57
2019-03-25T19:45:48.563Z,2.47
2019-03-25T19:48:17.300Z,2.23
2019-03-25T19:50:45.914Z,2.90
2019-03-25T19:53:19.343Z,3.10
2019-03-25T19:55:44.714Z,2.57
2019-03-25T19:58:13.203Z,3.00
2019-03-25T20:00:41.882Z,3.60
2019-03-25T20:03:10.499Z,2.93
2019-03-25T20:05:39.157Z,2.67
2019-03-25T20:08:07.748Z,2.53
2019-03-25T20:10:37.874Z,2.70
2019-03-25T20:13:06.847Z,2.87
2019-03-25T20:15:45.410Z,2.57
2019-03-25T20:18:05.743Z,3.03
2019-03-25T20:20:34.242Z,2.73
2019-03-25T20:23:02.772Z,2.73
2019-03-25T20:25:31.450Z,2.83
2019-03-25T20:27:59.983Z,3.10
2019-03-25T20:30:28.580Z,3.10
2019-03-25T20:32:57.240Z,3.30
2019-03-25T20:35:25.921Z,2.67
2019-03-25T20:37:54.502Z,3.03
2019-03-25T20:40:22.969Z,3.03
2019-03-25T20:42:51.554Z,3.03
2019-03-25T20:45:20.098Z,3.57
2019-03-25T20:47:48.676Z,3.00
2019-03-25T20:50:17.376Z,3.53
2019-03-25T20:52:45.879Z,3.10
2019-03-25T20:55:14.535Z,2.77
2019-03-25T20:57:43.043Z,3.00
2019-03-25T21:00:12.787Z,2.77
2019-03-25T21:02:45.309Z,2.87
2019-03-25T21:05:11.919Z,2.60
2019-03-25T21:07:40.450Z,2.93
2019-03-25T21:10:09.426Z,3.03
2019-03-25T21:12:38.790Z,2.93
2019-03-25T21:15:08.981Z,2.93
2019-03-25T21:17:37.547Z,2.73
2019-03-25T21:20:07.845Z,3.17
2019-03-25T21:22:36.557Z,2.67
2019-03-25T21:25:07.008Z,2.73
2019-03-25T21:27:35.547Z,2.30
2019-03-25T21:30:05.853Z,2.53
2019-03-25T21:32:34.494Z,3.00
2019-03-25T21:35:03.112Z,2.57
2019-03-25T21:37:31.746Z,2.97
2019-03-25T21:40:00.449Z,3.17
2019-03-25T21:42:29.479Z,3.13
2019-03-25T21:44:58.002Z,2.90
2019-03-25T21:47:26.691Z,3.03
2019-03-25T21:49:55.473Z,2.60
2019-03-25T21:52:23.983Z,2.87
2019-03-25T21:54:52.535Z,2.90
2019-03-25T21:57:21.156Z,2.27
2019-03-25T21:59:49.695Z,2.50
2019-03-25T22:02:18.170Z,2.30
2019-03-25T22:04:46.654Z,2.33
2019-03-25T22:07:15.179Z,2.03
2019-03-25T22:09:44.014Z,2.63
2019-03-25T22:12:12.542Z,2.30
2019-03-25T22:14:41.179Z,2.43
2019-03-25T22:17:09.732Z,2.20
2019-03-25T22:19:38.202Z,2.13
2019-03-25T22:22:06.683Z,2.07
2019-03-25T22:24:35.140Z,2.17
2019-03-25T22:27:03.702Z,2.17
2019-03-25T22:29:32.165Z,2.20
2019-03-25T22:32:00.690Z,2.30
2019-03-25T22:34:29.175Z,4.23
2019-03-25T22:36:57.661Z,3.20
2019-03-25T22:39:26.114Z,2.23
2019-03-25T22:41:54.599Z,2.90
2019-03-25T22:44:23.058Z,4.20
2019-03-25T22:46:51.588Z,3.43
2019-03-25T22:49:20.139Z,2.53
2019-03-25T22:51:48.603Z,2.60
2019-03-25T22:54:17.101Z,2.50
2019-03-25T22:56:45.564Z,2.97
2019-03-25T22:59:14.094Z,1.90
2019-03-25T23:01:42.726Z,2.17
2019-03-25T23:04:11.279Z,2.20
2019-03-25T23:06:39.738Z,1.80
2019-03-25T23:09:08.942Z,1.63
2019-03-25T23:11:37.438Z,2.10
2019-03-25T23:14:05.894Z,1.97
2019-03-25T23:16:34.378Z,1.90
2019-03-25T23:19:02.838Z,1.93
2019-03-25T23:21:31.322Z,1.87
2019-03-25T23:23:59.783Z,2.10
2019-03-25T23:26:28.350Z,2.13
2019-03-25T23:28:56.812Z,1.97
2019-03-25T23:31:25.342Z,1.87
2019-03-25T23:33:53.827Z,1.97
2019-03-25T23:36:22.384Z,2.17
2019-03-25T23:38:50.934Z,2.23
2019-03-25T23:41:19.468Z,2.80
2019-03-25T23:43:47.950Z,3.10
2019-03-25T23:46:16.581Z,2.70
2019-03-25T23:48:45.142Z,2.57
2019-03-25T23:51:13.602Z,3.03
2019-03-25T23:53:42.086Z,2.77
2019-03-25T23:56:10.550Z,3.37
2019-03-25T23:58:39.010Z,2.87
